createdAt,value
2018-07-12T11:50:50.688Z,50
2018-07-12T11:52:50.600Z,50
2018-07-12T11:54:49.987Z,50
2018-07-12T11:56:50.379Z,48
2018-07-12T11:58:50.937Z,47
2018-07-12T12:00:50.189Z,46
2018-07-12T12:02:50.487Z,47
2018-07-12T12:04:50.187Z,47
2018-07-12T12:06:51.007Z,48
2018-07-12T12:08:50.369Z,48
2018-07-12T12:10:50.606Z,48
2018-07-12T12:12:51.104Z,48
2018-07-12T12:14:50.413Z,48
2018-07-12T12:16:50.691Z,49
2018-07-12T12:18:50.061Z,48
2018-07-12T12:20:50.432Z,48
2018-07-12T12:22:50.807Z,48
2018-07-12T12:24:50.248Z,48
2018-07-12T12:26:50.695Z,48
2018-07-12T12:28:50.967Z,48
2018-07-12T12:30:50.204Z,48
2018-07-12T12:32:50.490Z,49
2018-07-12T12:34:50.041Z,49
2018-07-12T12:36:50.646Z,48
2018-07-12T12:38:50.101Z,47
2018-07-12T12:40:50.536Z,47
2018-07-12T12:42:50.952Z,47
2018-07-12T12:44:50.186Z,47
2018-07-12T12:46:50.622Z,46
2018-07-12T12:48:50.941Z,46
2018-07-12T12:50:50.599Z,46
2018-07-12T12:52:49.956Z,45
2018-07-12T12:54:50.178Z,46
2018-07-12T12:56:50.693Z,47
2018-07-12T12:58:49.994Z,47
2018-07-12T13:00:50.388Z,45
2018-07-12T13:02:50.058Z,45
2018-07-12T13:04:50.872Z,44
2018-07-12T13:06:50.387Z,45
2018-07-12T13:08:50.720Z,45
2018-07-12T13:10:50.031Z,45
2018-07-12T13:12:50.332Z,44
2018-07-12T13:14:50.661Z,45
2018-07-12T13:16:50.070Z,45
2018-07-12T13:18:50.374Z,45
2018-07-12T13:20:50.726Z,45
2018-07-12T13:22:50.051Z,44
2018-07-12T13:24:50.362Z,45
2018-07-12T13:26:50.784Z,44
2018-07-12T13:28:50.049Z,44
2018-07-12T13:30:50.356Z,45
2018-07-12T13:32:50.560Z,44
2018-07-12T13:34:50.215Z,44
2018-07-12T13:36:50.747Z,44
2018-07-12T13:38:50.089Z,44
2018-07-12T13:40:50.779Z,44
2018-07-12T13:42:50.086Z,43
2018-07-12T13:44:50.486Z,44
2018-07-12T13:46:51.833Z,44
2018-07-12T13:48:50.220Z,44
2018-07-12T13:50:50.679Z,44
2018-07-12T13:52:50.057Z,44
2018-07-12T13:54:50.266Z,44
2018-07-12T13:56:50.910Z,44
2018-07-12T13:58:50.361Z,44
2018-07-12T14:00:50.790Z,45
2018-07-12T14:02:50.129Z,44
2018-07-12T14:04:50.764Z,44
2018-07-12T14:06:50.224Z,44
2018-07-12T14:08:50.386Z,44
2018-07-12T14:10:50.752Z,44
2018-07-12T14:12:50.268Z,44
2018-07-12T14:14:50.598Z,44
2018-07-12T14:16:50.080Z,44
2018-07-12T14:18:50.391Z,43
2018-07-12T14:20:50.829Z,43
2018-07-12T14:22:50.197Z,44
2018-07-12T14:24:50.553Z,43
2018-07-12T14:26:50.972Z,43
2018-07-12T14:28:50.405Z,43
2018-07-12T14:30:50.974Z,42
2018-07-12T14:32:50.345Z,42
2018-07-12T14:34:49.980Z,43
2018-07-12T14:36:50.388Z,43
2018-07-12T14:38:50.710Z,43
2018-07-12T14:40:49.974Z,43
2018-07-12T14:42:50.373Z,43
2018-07-12T14:44:50.687Z,43
2018-07-12T14:46:50.130Z,43
2018-07-12T14:48:50.469Z,43
2018-07-12T14:50:50.674Z,43
2018-07-12T14:52:49.975Z,43
2018-07-12T14:54:50.212Z,43
2018-07-12T14:56:50.636Z,40.5
2018-07-12T14:58:50.030Z,40.4
2018-07-12T15:00:50.274Z,40.0
2018-07-12T15:02:51.059Z,44
2018-07-12T15:04:50.592Z,44
2018-07-12T15:06:50.145Z,44
2018-07-12T15:08:50.809Z,44
2018-07-12T15:10:50.075Z,44
2018-07-12T15:12:50.487Z,40.6
2018-07-12T15:14:50.892Z,40.8
2018-07-12T15:16:50.980Z,41.2
2018-07-12T15:18:50.369Z,41.7
2018-07-12T15:20:50.666Z,41.4
2018-07-12T15:22:50.036Z,41.8
2018-07-12T15:24:50.383Z,41.5
2018-07-12T15:26:50.864Z,40.5
2018-07-12T15:28:50.122Z,41.2
2018-07-12T15:30:50.283Z,41.2
2018-07-12T15:32:50.562Z,41.2
2018-07-12T15:34:50.237Z,41.4
2018-07-12T15:36:50.762Z,41.4
2018-07-12T15:38:50.069Z,41.2
2018-07-12T15:40:50.401Z,44
2018-07-12T15:42:50.630Z,44
2018-07-12T15:44:50.921Z,45
2018-07-12T15:46:50.398Z,45
2018-07-12T15:48:50.669Z,45
2018-07-12T15:50:50.961Z,44
2018-07-12T15:52:50.763Z,45
2018-07-12T15:54:50.041Z,45
2018-07-12T15:56:50.367Z,45
2018-07-12T15:58:50.717Z,45
2018-07-12T16:00:49.969Z,45
2018-07-12T16:02:50.232Z,44
2018-07-12T16:04:50.731Z,45
2018-07-12T16:06:50.308Z,44
2018-07-12T16:08:50.557Z,44
2018-07-12T16:10:50.875Z,44
2018-07-12T16:12:50.202Z,44
2018-07-12T16:14:50.389Z,43
2018-07-12T16:16:50.004Z,43
2018-07-12T16:18:50.265Z,44
2018-07-12T16:20:50.935Z,44
2018-07-12T16:22:50.169Z,44
2018-07-12T16:24:50.471Z,43
2018-07-12T16:26:50.028Z,43
2018-07-12T16:28:50.211Z,43
2018-07-12T16:30:50.476Z,43
2018-07-12T16:32:50.744Z,43
2018-07-12T16:34:50.245Z,43
2018-07-12T16:36:50.818Z,43
2018-07-12T16:38:50.136Z,43
2018-07-12T16:40:50.416Z,44
2018-07-12T16:42:50.807Z,43
2018-07-12T16:44:50.130Z,42
2018-07-12T16:46:50.624Z,42
2018-07-12T16:48:49.992Z,42
2018-07-12T16:50:50.220Z,42
2018-07-12T16:52:50.687Z,42
2018-07-12T16:54:50.018Z,41
2018-07-12T16:56:50.360Z,41
2018-07-12T16:58:50.767Z,42
2018-07-12T17:00:50.117Z,42
2018-07-12T17:02:50.398Z,41
2018-07-12T17:04:50.318Z,41
2018-07-12T17:06:50.682Z,41
2018-07-12T17:08:50.031Z,41
2018-07-12T17:10:50.329Z,41
2018-07-12T17:12:50.923Z,42
2018-07-12T17:14:50.189Z,41
2018-07-12T17:16:50.722Z,41
2018-07-12T17:18:50.041Z,41
2018-07-12T17:20:50.308Z,38.4
2018-07-12T17:22:50.514Z,38.2
2018-07-12T17:24:50.871Z,39.0
2018-07-12T17:26:50.505Z,40.5
2018-07-12T17:28:50.783Z,41.8
2018-07-12T17:30:50.040Z,39.9
2018-07-12T17:32:50.196Z,40.4
2018-07-12T17:34:50.826Z,41.1
2018-07-12T17:36:50.330Z,41.4
2018-07-12T17:38:50.575Z,41.7
2018-07-12T17:40:50.744Z,42.3
2018-07-12T17:42:50.036Z,42.5
2018-07-12T17:44:50.306Z,42.6
2018-07-12T17:46:50.648Z,42.8
2018-07-12T17:48:50.917Z,42.8
2018-07-12T17:50:50.353Z,42.8
2018-07-12T17:52:50.526Z,43.3
2018-07-12T17:54:50.843Z,43.5
2018-07-12T17:56:50.328Z,43.3
2018-07-12T17:58:50.655Z,43.6
2018-07-12T18:00:50.925Z,44.0
2018-07-12T18:02:50.216Z,43.8
2018-07-12T18:04:50.974Z,44.1
2018-07-12T18:06:50.485Z,44.0
2018-07-12T18:08:50.809Z,44.1
2018-07-12T18:10:50.094Z,44.1
2018-07-12T18:12:50.369Z,44.6
2018-07-12T18:14:50.884Z,44.6
2018-07-12T18:16:50.420Z,44.8
2018-07-12T18:18:50.706Z,45.1
2018-07-12T18:20:50.949Z,45.6
2018-07-12T18:22:50.279Z,45.6
2018-07-12T18:24:50.548Z,46.0
2018-07-12T18:26:49.949Z,46.4
2018-07-12T18:28:50.177Z,46.5
2018-07-12T18:30:50.547Z,47.0
2018-07-12T18:32:50.762Z,46.9
2018-07-12T18:34:50.405Z,48.0
2018-07-12T18:36:50.912Z,47.4
2018-07-12T18:38:50.128Z,48.0
2018-07-12T18:40:50.359Z,47.8
2018-07-12T18:42:50.734Z,48.0
2018-07-12T18:44:50.059Z,48.2
2018-07-12T18:46:50.536Z,48.6
2018-07-12T18:48:50.801Z,49.0
2018-07-12T18:50:50.051Z,49.3
2018-07-12T18:52:50.331Z,49.5
2018-07-12T18:54:50.666Z,49.8
2018-07-12T18:56:50.072Z,49.7
2018-07-12T18:58:50.435Z,50.1
2018-07-12T19:00:50.687Z,50.3
2018-07-12T19:02:49.974Z,50.3
2018-07-12T19:04:50.583Z,50.5
2018-07-12T19:06:49.984Z,50.8
2018-07-12T19:08:50.833Z,51.1
2018-07-12T19:10:50.239Z,51.3
2018-07-12T19:12:50.542Z,51.7
2018-07-12T19:14:51.305Z,51.9
2018-07-12T19:16:50.714Z,52.3
2018-07-12T19:18:50.098Z,52.7
2018-07-12T19:20:50.708Z,52.8
2018-07-12T19:22:50.142Z,52.4
2018-07-12T19:24:50.337Z,52.3
2018-07-12T19:26:50.686Z,52.4
2018-07-12T19:28:50.058Z,52.6
2018-07-12T19:30:50.329Z,52.3
2018-07-12T19:32:50.632Z,52.4
2018-07-12T19:34:50.590Z,52.5
2018-07-12T19:36:50.004Z,52.5
2018-07-12T19:38:50.208Z,52.5
2018-07-12T19:40:50.571Z,52.4
2018-07-12T19:42:50.148Z,52.5
2018-07-12T19:44:50.426Z,52.7
2018-07-12T19:46:50.529Z,53.2
2018-07-12T19:48:50.830Z,53.2
2018-07-12T19:50:50.188Z,52.8
2018-07-12T19:52:50.659Z,52.8
2018-07-12T19:54:49.984Z,52.7
2018-07-12T19:56:50.437Z,52.8
2018-07-12T19:58:50.634Z,52.9
2018-07-12T20:00:51.031Z,53.1
2018-07-12T20:02:50.400Z,53.3
2018-07-12T20:04:50.002Z,53.2
2018-07-12T20:06:50.500Z,53.3
2018-07-12T20:08:50.835Z,53.5
2018-07-12T20:10:50.143Z,53.8
2018-07-12T20:12:50.547Z,53.6
2018-07-12T20:14:50.751Z,53.6
2018-07-12T20:16:50.267Z,53.6
2018-07-12T20:18:50.637Z,53.8
2018-07-12T20:20:50.885Z,54.1
2018-07-12T20:22:50.194Z,54.2
2018-07-12T20:24:51.014Z,54.0
2018-07-12T20:26:50.433Z,54.1
2018-07-12T20:28:50.731Z,54.0
2018-07-12T20:30:50.176Z,54.0
2018-07-12T20:32:50.444Z,54.1
2018-07-12T20:34:49.962Z,54.6
2018-07-12T20:36:50.415Z,54.9
2018-07-12T20:38:50.733Z,54.8
2018-07-12T20:40:50.581Z,55.1
2018-07-12T20:42:50.056Z,55.1
2018-07-12T20:44:50.306Z,55.5
2018-07-12T20:46:50.654Z,55.6
2018-07-12T20:48:49.984Z,56.0
2018-07-12T20:50:50.383Z,56.4
2018-07-12T20:52:50.751Z,56.8
2018-07-12T20:54:51.010Z,57.4
2018-07-12T20:56:50.444Z,57.4
2018-07-12T20:58:49.982Z,58.8
2018-07-12T21:00:50.462Z,58.9
2018-07-12T21:02:50.675Z,59.4
2018-07-12T21:04:50.326Z,59.9
2018-07-12T21:06:50.784Z,60.2
2018-07-12T21:08:50.058Z,60.9
2018-07-12T21:10:50.397Z,61.1
2018-07-12T21:12:50.716Z,61.5
2018-07-12T21:14:49.977Z,61.5
2018-07-12T21:16:50.544Z,62.0
2018-07-12T21:18:49.956Z,62.5
2018-07-12T21:20:50.233Z,62.8
2018-07-12T21:22:50.464Z,63.0
2018-07-12T21:24:50.696Z,63.1
2018-07-12T21:26:50.069Z,64.5
2018-07-12T21:28:50.453Z,64.4
2018-07-12T21:30:50.738Z,65.3
2018-07-12T21:32:50.951Z,65.3
2018-07-12T21:34:50.630Z,65.0
2018-07-12T21:36:49.958Z,64.8
2018-07-12T21:38:50.395Z,65.1
2018-07-12T21:40:50.643Z,65.1
2018-07-12T21:42:50.878Z,65.8
2018-07-12T21:44:50.139Z,66.1
2018-07-12T21:46:50.518Z,65.9
2018-07-12T21:48:50.762Z,66.2
2018-07-12T21:50:50.001Z,66.5
2018-07-12T21:52:50.367Z,66.8
2018-07-12T21:54:50.654Z,66.9
2018-07-12T21:56:50.140Z,67.3
2018-07-12T21:58:50.497Z,67.2
2018-07-12T22:00:50.740Z,67.0
2018-07-12T22:02:50.422Z,67.2
2018-07-12T22:04:49.979Z,68.1
2018-07-12T22:06:50.555Z,69.7
2018-07-12T22:08:50.875Z,69.2
2018-07-12T22:10:50.052Z,69.1
2018-07-12T22:12:50.349Z,68.9
2018-07-12T22:14:50.586Z,69.4
2018-07-12T22:16:50.074Z,69.2
2018-07-12T22:18:50.372Z,69.1
2018-07-12T22:20:50.581Z,69.1
2018-07-12T22:22:50.819Z,68.7
2018-07-12T22:24:50.051Z,69.1
2018-07-12T22:26:50.745Z,69.6
2018-07-12T22:28:50.019Z,69.8
2018-07-12T22:30:50.416Z,69.4
2018-07-12T22:32:50.670Z,69.5
2018-07-12T22:34:50.299Z,70.4
2018-07-12T22:36:50.840Z,70.0
2018-07-12T22:38:50.099Z,69.3
2018-07-12T22:40:50.434Z,69.1
2018-07-12T22:42:50.798Z,69.1
2018-07-12T22:44:50.024Z,69.6
2018-07-12T22:46:50.463Z,69.1
2018-07-12T22:48:51.558Z,69.4
2018-07-12T22:50:50.043Z,69.5
2018-07-12T22:52:50.205Z,69.6
2018-07-12T22:54:50.492Z,69.8
2018-07-12T22:56:50.792Z,70.0
2018-07-12T22:58:50.107Z,70.3
2018-07-12T23:00:50.480Z,70.7
2018-07-12T23:02:50.734Z,71.0
2018-07-12T23:04:50.574Z,71.4
2018-07-12T23:06:51.160Z,71.6
2018-07-12T23:08:50.596Z,72.3
2018-07-12T23:10:50.826Z,72.8
2018-07-12T23:12:50.214Z,72.9
2018-07-12T23:14:50.509Z,73.7
2018-07-12T23:16:50.914Z,73.7
2018-07-12T23:18:50.316Z,74.0
2018-07-12T23:20:50.678Z,75.1
2018-07-12T23:22:50.044Z,75.1
2018-07-12T23:24:50.974Z,74.9
2018-07-12T23:26:50.450Z,75.2
2018-07-12T23:28:50.716Z,75.5
2018-07-12T23:30:50.105Z,75.7
2018-07-12T23:32:50.362Z,76.1
2018-07-12T23:34:50.838Z,76.4
2018-07-12T23:36:50.329Z,76.5
2018-07-12T23:38:50.598Z,77.0
2018-07-12T23:40:50.868Z,77.2
2018-07-12T23:42:50.181Z,77.5
2018-07-12T23:44:50.392Z,77.5
2018-07-12T23:46:50.925Z,77.3
2018-07-12T23:48:50.364Z,77.3
2018-07-12T23:50:50.552Z,77.4
2018-07-12T23:52:50.735Z,78.4
2018-07-12T23:54:50.142Z,78.6
2018-07-12T23:56:50.522Z,78.8
2018-07-12T23:58:50.725Z,79.2
